createdAt,value
2023-04-18T00:05:48.422Z,0
2023-04-18T00:11:08.139Z,0
2023-04-18T00:21:45.837Z,0
2023-04-18T00:32:23.932Z,0
2023-04-18T00:37:43.746Z,0
2023-04-18T00:48:22.400Z,0
2023-04-18T00:53:41.929Z,0
2023-04-18T01:04:20.223Z,0
2023-04-18T01:14:58.530Z,0
2023-04-18T01:20:17.794Z,0
2023-04-18T01:30:56.834Z,0
2023-04-18T01:36:15.699Z,0
2023-04-18T01:46:53.894Z,0
2023-04-18T02:02:51.546Z,0
2023-04-18T02:13:30.326Z,0
2023-04-18T02:18:49.133Z,0
2023-04-18T02:29:27.875Z,0
2023-04-18T02:34:47.333Z,0
2023-04-18T02:45:26.352Z,0
2023-04-18T02:56:04.856Z,0
2023-04-18T03:01:24.605Z,0
2023-04-18T03:12:03.835Z,0
2023-04-18T03:17:23.271Z,0
2023-04-18T03:28:01.240Z,0
2023-04-18T03:38:39.965Z,0
2023-04-18T03:43:58.809Z,0
2023-04-18T03:54:36.884Z,0
2023-04-18T03:59:55.807Z,0
2023-04-18T04:10:34.030Z,0
2023-04-18T04:21:11.791Z,0.0084
2023-04-18T04:26:31.188Z,0.0161
2023-04-18T04:37:09.368Z,0.0259
2023-04-18T04:42:28.743Z,0.0266
2023-04-18T04:53:07.133Z,0.0302
2023-04-18T05:03:46.306Z,0.0367
2023-04-18T05:09:05.470Z,0.0358
2023-04-18T05:19:43.196Z,0.038
2023-04-18T05:25:02.557Z,0.0404
2023-04-18T05:35:40.388Z,0.0651
2023-04-18T05:51:39.127Z,0.0875
2023-04-18T06:02:17.088Z,0.0938
2023-04-18T06:07:36.030Z,0.094
2023-04-18T06:18:14.708Z,0.1286
2023-04-18T06:23:33.767Z,0.14
2023-04-18T06:34:13.155Z,0.1384
2023-04-18T06:44:51.604Z,0.2017
2023-04-18T06:55:30.521Z,0.2142
2023-04-18T07:00:49.946Z,0.2725
2023-04-18T07:11:28.402Z,0.2557
2023-04-18T07:22:06.629Z,0.2303
2023-04-18T07:27:26.251Z,0.2574
2023-04-18T07:38:04.942Z,0.3041
2023-04-18T07:43:24.240Z,0.3023
2023-04-18T07:54:01.888Z,0.3518
2023-04-18T08:04:40.258Z,0.4468
2023-04-18T08:09:59.127Z,0.4292
2023-04-18T08:20:38.237Z,0.2603
2023-04-18T08:25:57.391Z,0.2762
2023-04-18T08:36:36.125Z,0.3242
2023-04-18T08:41:55.357Z,0.4149
2023-04-18T08:52:33.397Z,0.3921
2023-04-18T09:03:12.719Z,0.341
2023-04-18T09:08:31.842Z,0.3391
2023-04-18T09:19:11.114Z,0.6217
2023-04-18T09:24:29.996Z,1.3968
2023-04-18T09:35:08.887Z,0.5134
2023-04-18T09:51:06.153Z,0.8893
2023-04-18T10:01:45.198Z,0.5294
2023-04-18T10:17:52.661Z,0.4642
2023-04-18T10:33:42.740Z,0.2251
2023-04-18T10:44:19.237Z,0.2673
2023-04-18T10:49:37.983Z,0.2848
2023-04-18T11:00:16.216Z,0.5962
2023-04-18T11:16:14.001Z,0.2787
2023-04-18T11:26:51.938Z,0.3427
2023-04-18T11:32:11.568Z,0.451
2023-04-18T11:42:49.865Z,0.3978
2023-04-18T11:48:09.517Z,0.3867
2023-04-18T11:58:48.071Z,0.3534
2023-04-18T12:14:45.317Z,0.3777
2023-04-18T12:25:27.250Z,0.2579
2023-04-18T12:30:44.400Z,0.2882
2023-04-18T12:41:22.676Z,0.524
2023-04-18T12:57:20.564Z,0.2694
2023-04-18T13:08:13.138Z,0.3526
2023-04-18T13:13:18.984Z,0.3587
2023-04-18T13:20:16.736Z,0.2699
2023-04-18T13:23:57.657Z,0.4266
2023-04-18T13:35:04.025Z,1.4913
2023-04-18T13:40:23.532Z,0.7894
2023-04-18T13:51:02.584Z,0.2829
2023-04-18T13:56:21.371Z,0.3233
2023-04-18T14:06:59.703Z,0.3119
2023-04-18T14:17:36.895Z,0.4189
2023-04-18T14:22:55.743Z,0.2576
2023-04-18T14:33:33.494Z,0.3616
2023-04-18T14:38:52.380Z,0.3379
2023-04-18T14:49:30.473Z,0.234
2023-04-18T15:00:08.775Z,0.2332
2023-04-18T15:05:28.433Z,0.2187
2023-04-18T15:16:07.230Z,0.1306
2023-04-18T15:21:26.809Z,0.1323
2023-04-18T15:32:05.357Z,0.1055
2023-04-18T15:48:03.484Z,0.0755
2023-04-18T15:58:41.238Z,0.0918
2023-04-18T16:04:00.655Z,0.0902
2023-04-18T16:14:39.332Z,0.0676
2023-04-18T16:30:37.593Z,0.071
2023-04-18T16:41:15.831Z,0.0716
2023-04-18T16:46:34.864Z,0.0658
2023-04-18T16:57:13.651Z,0.0562
2023-04-18T17:02:33.358Z,0.0556
2023-04-18T17:13:11.481Z,0.0566
2023-04-18T17:29:09.554Z,0.0463
2023-04-18T17:39:49.691Z,0.0374
2023-04-18T17:45:07.518Z,0.0392
2023-04-18T17:55:46.307Z,0.0318
2023-04-18T18:11:44.628Z,0.0248
2023-04-18T18:22:22.700Z,0.0102
2023-04-18T18:27:41.529Z,0.006
2023-04-18T18:38:19.580Z,0
2023-04-18T18:54:17.642Z,0
2023-04-18T19:04:56.636Z,0
2023-04-18T19:10:15.536Z,0
2023-04-18T19:20:54.004Z,0
2023-04-18T19:26:12.792Z,0
2023-04-18T19:36:51.772Z,0
2023-04-18T19:52:49.616Z,0
2023-04-18T20:03:28.636Z,0
2023-04-18T20:08:48.292Z,0
2023-04-18T20:14:07.926Z,0
2023-04-18T20:30:06.624Z,0
2023-04-18T20:40:44.034Z,0
2023-04-18T20:46:03.613Z,0
2023-04-18T20:56:42.100Z,0
2023-04-18T21:02:01.544Z,0
2023-04-18T21:12:39.343Z,0
2023-04-18T21:23:17.446Z,0
2023-04-18T21:28:36.974Z,0
2023-04-18T21:39:15.879Z,0
2023-04-18T21:44:35.432Z,0
2023-04-18T21:55:15.126Z,0
2023-04-18T22:11:13.264Z,0
2023-04-18T22:21:51.299Z,0
2023-04-18T22:27:09.421Z,0
2023-04-18T22:37:47.849Z,0
2023-04-18T22:48:26.499Z,0
2023-04-18T22:53:46.074Z,0
2023-04-18T23:04:24.287Z,0
2023-04-18T23:09:43.830Z,0
2023-04-18T23:20:22.687Z,0
2023-04-18T23:36:20.990Z,0
2023-04-18T23:46:59.671Z,0
2023-04-18T23:52:18.687Z,0
